Valle Aurora — IBMV — position and weather

sailwx.info

Track history (hours):
 
Tides and Currents Weather Stations Pressure Air Temp Water Temp Dewpoint Dewpoint Depression Visibility Wind Speed Wind Dir Waves Ship Positions

Valle Aurora

Last reported at 2017-Nov-19 17:02 UTC. Time now 2017-Nov-22 18:37 UTC.
Position N 35°59' W 005°13'.

Length 96 m; draft 5.8 m.

Type: Ship (hazmat cat D). MMSI: 247354000.

Date/timePositionNaut miles runAvg speedWind from/ knotsBaromVisibWave heightAir tempDewpointWater temp
2017-Nov-19 17:02N 35°59' W 005°13'012.8
2017-Nov-19 17:00N 35°59' W 005°13'612.9
2017-Nov-19 16:30N 35°58' W 005°21'612.8
2017-Nov-19 16:00N 35°57' W 005°29'17211.7
2017-Nov-19 01:17N 36°27' W 008°59'612.8
2017-Nov-19 00:47N 36°28' W 009°06'2312.4
2017-Nov-18 22:56N 36°40' W 009°31'513.1
2017-Nov-18 22:31N 36°44' W 009°35'612.6
2017-Nov-18 22:00N 36°50' W 009°39'1713.4
2017-Nov-18 20:45N 37°07' W 009°43'313.5
2017-Nov-18 20:30N 37°10' W 009°44'713.2
2017-Nov-18 19:59N 37°16' W 009°46'713.4
2017-Nov-18 19:26N 37°24' W 009°48'613.6
2017-Nov-18 19:00N 37°29' W 009°50'713.0
2017-Nov-18 18:31N 37°35' W 009°52'713.2
2017-Nov-18 18:01N 37°42' W 009°54'713.2
2017-Nov-18 17:30N 37°48' W 009°56'713.4
2017-Nov-18 17:00N 37°55' W 009°58'713.4
2017-Nov-18 16:30N 38°01' W 009°60'713.4
2017-Nov-18 16:00N 38°08' W 010°01'713.3
2017-Nov-18 15:30N 38°14' W 010°03'713.4
2017-Nov-18 15:00N 38°21' W 010°04'713.3
2017-Nov-18 14:30N 38°28' W 010°06'713.3
2017-Nov-18 14:01N 38°34' W 010°08'713.2
2017-Nov-18 13:30N 38°40' W 010°10'613.0
2017-Nov-18 13:00N 38°47' W 010°11'612.9
2017-Nov-18 12:31N 38°53' W 010°11'612.5
2017-Nov-18 12:00N 38°60' W 010°11'613.0
2017-Nov-18 11:31N 39°06' W 010°11'713.1
2017-Nov-18 11:01N 39°13' W 010°11'713.2
2017-Nov-18 10:30N 39°19' W 010°11'713.6
2017-Nov-18 10:00N 39°26' W 010°11'813.8
2017-Nov-18 09:23N 39°35' W 010°11'3313.2
2017-Nov-18 06:54N 40°07' W 010°12'513.7
2017-Nov-18 06:30N 40°13' W 010°12'713.7
2017-Nov-18 06:00N 40°20' W 010°12'2913.7
2017-Nov-18 03:55N 40°48' W 010°11'813.6
2017-Nov-18 03:19N 40°56' W 010°11'44913.0
2017-Nov-16 16:45N 47°57' W 006°32'1313.2
2017-Nov-16 15:45N 48°09' W 006°23'3212.2
2017-Nov-16 13:05N 48°37' W 005°60'211.6
2017-Nov-16 12:56N 48°39' W 005°58'2012.0
2017-Nov-16 11:18N 48°55' W 005°41'3013.5
2017-Nov-16 09:03N 49°12' W 005°02'1114.1
2017-Nov-16 08:16N 49°17' W 004°48'413.7
2017-Nov-16 08:00N 49°19' W 004°43'713.4
2017-Nov-16 07:28N 49°22' W 004°33'1112.8
2017-Nov-16 06:35N 49°28' W 004°18'712.2
2017-Nov-16 06:03N 49°31' W 004°09'211.8
2017-Nov-16 05:54N 49°32' W 004°07'1611.4
2017-Nov-16 04:29N 49°40' W 003°45'510.7
2017-Nov-16 04:00N 49°42' W 003°38'713.9
2017-Nov-16 03:30N 49°46' W 003°29'8 9.5
2017-Nov-16 02:41N 49°51' W 003°20'211.6
2017-Nov-16 02:30N 49°52' W 003°17'612.1
2017-Nov-16 02:00N 49°53' W 003°08'613.0
2017-Nov-16 01:30N 49°57' W 002°59'713.4
2017-Nov-16 01:00N 49°59' W 002°50'714.1
2017-Nov-16 00:30N 50°01' W 002°39'3214.8
2017-Nov-15 22:22N 50°11' W 001°53'513.9
2017-Nov-15 22:00N 50°13' W 001°45'713.3
2017-Nov-15 21:30N 50°15' W 001°35'4810.6
2017-Nov-15 16:58N 50°28' W 000°23'511.0
2017-Nov-15 16:30N 50°29' W 000°15'612.0
2017-Nov-15 16:00N 50°30' W 000°06'612.6
2017-Nov-15 15:30N 50°32' E 000°04'713.1
2017-Nov-15 15:00N 50°34' E 000°14'713.5
2017-Nov-15 14:30N 50°36' E 000°24'713.6
2017-Nov-15 14:00N 50°38' E 000°34'713.4
2017-Nov-15 13:30N 50°42' E 000°43'713.2
2017-Nov-15 13:00N 50°46' E 000°51'612.6
2017-Nov-15 12:30N 50°49' E 000°59'1111.8
2017-Nov-15 11:32N 50°57' E 001°13'111.1
2017-Nov-15 11:29N 50°57' E 001°14'510.9
2017-Nov-15 11:00N 51°00' E 001°20'510.3
2017-Nov-15 10:30N 51°04' E 001°27'510.6
2017-Nov-15 10:00N 51°07' E 001°33'510.4
2017-Nov-15 09:30N 51°10' E 001°40'510.7
2017-Nov-15 09:00N 51°14' E 001°46'611.8
2017-Nov-15 08:30N 51°19' E 001°50'612.6
2017-Nov-15 08:00N 51°25' E 001°54'713.4
2017-Nov-15 07:30N 51°30' E 002°01'713.5
2017-Nov-15 07:00N 51°35' E 002°09'713.9
2017-Nov-15 06:29N 51°40' E 002°17'5411.7
2017-Nov-15 01:53N 52°04' E 003°35'611.6
2017-Nov-15 01:21N 52°03' E 003°45'411.0
2017-Nov-15 01:01N 52°02' E 003°51'5 9.3
2017-Nov-15 00:31N 52°01' E 003°58'612.2
2017-Nov-15 00:00N 51°58' E 004°07'4 0.8
2017-Nov-14 18:44N 51°55' E 004°12'0 0.0
2017-Nov-14 18:29N 51°55' E 004°12'0 0.0
2017-Nov-14 17:56N 51°55' E 004°12'0 0.0
2017-Nov-14 17:20N 51°55' E 004°12'0 0.0
2017-Nov-14 16:59N 51°55' E 004°12'0 0.0
2017-Nov-14 16:26N 51°55' E 004°12'0 0.0
2017-Nov-14 15:59N 51°55' E 004°12'0 0.0
2017-Nov-14 15:23N 51°55' E 004°12'0 0.0
2017-Nov-14 14:59N 51°55' E 004°12'0 0.0
2017-Nov-14 14:20N 51°55' E 004°12'0 0.0
2017-Nov-14 13:59N 51°55' E 004°12'0 0.0
2017-Nov-14 10:11N 51°55' E 004°12'0 0.0
2017-Nov-14 07:14N 51°55' E 004°12'0 0.0
2017-Nov-14 06:47N 51°55' E 004°12'0 0.0
2017-Nov-14 04:59N 51°55' E 004°12'0 0.0
2017-Nov-14 01:02N 51°55' E 004°12'0 0.0
2017-Nov-14 00:51N 51°55' E 004°12'0 0.6
2017-Nov-14 00:30N 51°55' E 004°12'2 4.9
2017-Nov-14 00:00N 51°57' E 004°09'510.6
2017-Nov-13 23:30N 51°60' E 004°01'612.5
2017-Nov-13 23:00N 51°60' E 003°51'611.0
2017-Nov-13 22:30N 51°59' E 003°43'25510.0
2017-Nov-12 21:03N 49°56' W 002°12'1 8.1
2017-Nov-12 20:57N 49°55' W 002°13'14 8.9
2017-Nov-12 19:21N 49°52' W 002°34'26 9.9
2017-Nov-12 16:45N 49°41' W 003°10'10311.2
2017-Nov-12 07:30N 48°49' W 005°27'611.4
2017-Nov-12 06:59N 48°46' W 005°34'  
2017-Nov-09 20:37N 39°16' W 009°55'1 8.9
2017-Nov-09 20:28N 39°15' W 009°55'4 8.9
2017-Nov-09 20:00N 39°10' W 009°56'4 8.7
2017-Nov-09 19:30N 39°06' W 009°55'5 9.0
2017-Nov-09 19:00N 39°02' W 009°55'4 8.9
2017-Nov-09 18:30N 38°57' W 009°56'4 8.5
2017-Nov-09 18:00N 38°53' W 009°56'4 8.5
2017-Nov-09 17:30N 38°49' W 009°56'  
Track history (hours):
 
Tides and Currents Weather Stations Pressure Air Temp Water Temp Dewpoint Dewpoint Depression Visibility Wind Speed Wind Dir Waves Ship Positions

Valle Aurora

Last reported at 2017-Nov-19 17:02 UTC. Time now 2017-Nov-22 18:37 UTC.
Position N 35°59' W 005°13'.

Length 96 m; draft 5.8 m.

Type: Ship (hazmat cat D). MMSI: 247354000.

Date/timePositionNaut miles runAvg speedWind from/ knotsBaromVisibWave heightAir tempDewpointWater temp
2017-Nov-19 17:02N 35°59' W 005°13'012.8
2017-Nov-19 17:00N 35°59' W 005°13'612.9
2017-Nov-19 16:30N 35°58' W 005°21'612.8
2017-Nov-19 16:00N 35°57' W 005°29'17211.7
2017-Nov-19 01:17N 36°27' W 008°59'612.8
2017-Nov-19 00:47N 36°28' W 009°06'2312.4
2017-Nov-18 22:56N 36°40' W 009°31'513.1
2017-Nov-18 22:31N 36°44' W 009°35'612.6
2017-Nov-18 22:00N 36°50' W 009°39'1713.4
2017-Nov-18 20:45N 37°07' W 009°43'313.5
2017-Nov-18 20:30N 37°10' W 009°44'713.2
2017-Nov-18 19:59N 37°16' W 009°46'713.4
2017-Nov-18 19:26N 37°24' W 009°48'613.6
2017-Nov-18 19:00N 37°29' W 009°50'713.0
2017-Nov-18 18:31N 37°35' W 009°52'713.2
2017-Nov-18 18:01N 37°42' W 009°54'713.2
2017-Nov-18 17:30N 37°48' W 009°56'713.4
2017-Nov-18 17:00N 37°55' W 009°58'713.4
2017-Nov-18 16:30N 38°01' W 009°60'713.4
2017-Nov-18 16:00N 38°08' W 010°01'713.3
2017-Nov-18 15:30N 38°14' W 010°03'713.4
2017-Nov-18 15:00N 38°21' W 010°04'713.3
2017-Nov-18 14:30N 38°28' W 010°06'713.3
2017-Nov-18 14:01N 38°34' W 010°08'713.2
2017-Nov-18 13:30N 38°40' W 010°10'613.0
2017-Nov-18 13:00N 38°47' W 010°11'612.9
2017-Nov-18 12:31N 38°53' W 010°11'612.5
2017-Nov-18 12:00N 38°60' W 010°11'613.0
2017-Nov-18 11:31N 39°06' W 010°11'713.1
2017-Nov-18 11:01N 39°13' W 010°11'713.2
2017-Nov-18 10:30N 39°19' W 010°11'713.6
2017-Nov-18 10:00N 39°26' W 010°11'813.8
2017-Nov-18 09:23N 39°35' W 010°11'3313.2
2017-Nov-18 06:54N 40°07' W 010°12'513.7
2017-Nov-18 06:30N 40°13' W 010°12'713.7
2017-Nov-18 06:00N 40°20' W 010°12'2913.7
2017-Nov-18 03:55N 40°48' W 010°11'813.6
2017-Nov-18 03:19N 40°56' W 010°11'44913.0
2017-Nov-16 16:45N 47°57' W 006°32'1313.2
2017-Nov-16 15:45N 48°09' W 006°23'3212.2
2017-Nov-16 13:05N 48°37' W 005°60'211.6
2017-Nov-16 12:56N 48°39' W 005°58'2012.0
2017-Nov-16 11:18N 48°55' W 005°41'3013.5
2017-Nov-16 09:03N 49°12' W 005°02'1114.1
2017-Nov-16 08:16N 49°17' W 004°48'413.7
2017-Nov-16 08:00N 49°19' W 004°43'713.4
2017-Nov-16 07:28N 49°22' W 004°33'1112.8
2017-Nov-16 06:35N 49°28' W 004°18'712.2
2017-Nov-16 06:03N 49°31' W 004°09'211.8
2017-Nov-16 05:54N 49°32' W 004°07'1611.4
2017-Nov-16 04:29N 49°40' W 003°45'510.7
2017-Nov-16 04:00N 49°42' W 003°38'713.9
2017-Nov-16 03:30N 49°46' W 003°29'8 9.5
2017-Nov-16 02:41N 49°51' W 003°20'211.6
2017-Nov-16 02:30N 49°52' W 003°17'612.1
2017-Nov-16 02:00N 49°53' W 003°08'613.0
2017-Nov-16 01:30N 49°57' W 002°59'713.4
2017-Nov-16 01:00N 49°59' W 002°50'714.1
2017-Nov-16 00:30N 50°01' W 002°39'3214.8
2017-Nov-15 22:22N 50°11' W 001°53'513.9
2017-Nov-15 22:00N 50°13' W 001°45'713.3
2017-Nov-15 21:30N 50°15' W 001°35'4810.6
2017-Nov-15 16:58N 50°28' W 000°23'511.0
2017-Nov-15 16:30N 50°29' W 000°15'612.0
2017-Nov-15 16:00N 50°30' W 000°06'612.6
2017-Nov-15 15:30N 50°32' E 000°04'713.1
2017-Nov-15 15:00N 50°34' E 000°14'713.5
2017-Nov-15 14:30N 50°36' E 000°24'713.6
2017-Nov-15 14:00N 50°38' E 000°34'713.4
2017-Nov-15 13:30N 50°42' E 000°43'713.2
2017-Nov-15 13:00N 50°46' E 000°51'612.6
2017-Nov-15 12:30N 50°49' E 000°59'1111.8
2017-Nov-15 11:32N 50°57' E 001°13'111.1
2017-Nov-15 11:29N 50°57' E 001°14'510.9
2017-Nov-15 11:00N 51°00' E 001°20'510.3
2017-Nov-15 10:30N 51°04' E 001°27'510.6
2017-Nov-15 10:00N 51°07' E 001°33'510.4
2017-Nov-15 09:30N 51°10' E 001°40'510.7
2017-Nov-15 09:00N 51°14' E 001°46'611.8
2017-Nov-15 08:30N 51°19' E 001°50'612.6
2017-Nov-15 08:00N 51°25' E 001°54'713.4
2017-Nov-15 07:30N 51°30' E 002°01'713.5
2017-Nov-15 07:00N 51°35' E 002°09'713.9
2017-Nov-15 06:29N 51°40' E 002°17'5411.7
2017-Nov-15 01:53N 52°04' E 003°35'611.6
2017-Nov-15 01:21N 52°03' E 003°45'411.0
2017-Nov-15 01:01N 52°02' E 003°51'5 9.3
2017-Nov-15 00:31N 52°01' E 003°58'612.2
2017-Nov-15 00:00N 51°58' E 004°07'4 0.8
2017-Nov-14 18:44N 51°55' E 004°12'0 0.0
2017-Nov-14 18:29N 51°55' E 004°12'0 0.0
2017-Nov-14 17:56N 51°55' E 004°12'0 0.0
2017-Nov-14 17:20N 51°55' E 004°12'0 0.0
2017-Nov-14 16:59N 51°55' E 004°12'0 0.0
2017-Nov-14 16:26N 51°55' E 004°12'0 0.0
2017-Nov-14 15:59N 51°55' E 004°12'0 0.0
2017-Nov-14 15:23N 51°55' E 004°12'0 0.0
2017-Nov-14 14:59N 51°55' E 004°12'0 0.0
2017-Nov-14 14:20N 51°55' E 004°12'0 0.0
2017-Nov-14 13:59N 51°55' E 004°12'0 0.0
2017-Nov-14 10:11N 51°55' E 004°12'0 0.0
2017-Nov-14 07:14N 51°55' E 004°12'0 0.0
2017-Nov-14 06:47N 51°55' E 004°12'0 0.0
2017-Nov-14 04:59N 51°55' E 004°12'0 0.0
2017-Nov-14 01:02N 51°55' E 004°12'0 0.0
2017-Nov-14 00:51N 51°55' E 004°12'0 0.6
2017-Nov-14 00:30N 51°55' E 004°12'2 4.9
2017-Nov-14 00:00N 51°57' E 004°09'510.6
2017-Nov-13 23:30N 51°60' E 004°01'612.5
2017-Nov-13 23:00N 51°60' E 003°51'611.0
2017-Nov-13 22:30N 51°59' E 003°43'25510.0
2017-Nov-12 21:03N 49°56' W 002°12'1 8.1
2017-Nov-12 20:57N 49°55' W 002°13'14 8.9
2017-Nov-12 19:21N 49°52' W 002°34'26 9.9
2017-Nov-12 16:45N 49°41' W 003°10'10311.2
2017-Nov-12 07:30N 48°49' W 005°27'611.4
2017-Nov-12 06:59N 48°46' W 005°34'  
2017-Nov-09 20:37N 39°16' W 009°55'1 8.9
2017-Nov-09 20:28N 39°15' W 009°55'4 8.9
2017-Nov-09 20:00N 39°10' W 009°56'4 8.7
2017-Nov-09 19:30N 39°06' W 009°55'5 9.0
2017-Nov-09 19:00N 39°02' W 009°55'4 8.9
2017-Nov-09 18:30N 38°57' W 009°56'4 8.5
2017-Nov-09 18:00N 38°53' W 009°56'4 8.5
2017-Nov-09 17:30N 38°49' W 009°56'  

Dump ship's entire track history